This is the latest recevied weather packets stored in our database for station/object G1SCQ. If no packets are shown the sender has not sent any weather packets the latest 10 day(s).
| Time | Temp. | Humidity | Pressure | Rain* | Wind** | Luminosity | Snow |
|---|---|---|---|---|---|---|---|
| 1777820945 | 16.11° C | 75% | 1008.3 hPa | 0 mm | - | 188 W/m² | - |
| 1777820405 | 16.67° C | 72% | 1008.3 hPa | 0 mm | - | 241 W/m² | - |
| 1777820045 | 16.67° C | 74% | 1008.5 hPa | 0 mm | - | 280 W/m² | - |
| 1777819505 | 16.11° C | 75% | 1008.4 hPa | 0 mm | - | 388 W/m² | - |
| 1777818965 | 16.11° C | 76% | 1008.4 hPa | 0 mm | - | 226 W/m² | - |
| 1777818425 | 15.56° C | 76% | 1008.6 hPa | 0 mm | - | 168 W/m² | - |
| 1777817885 | 16.67° C | 73% | 1008.2 hPa | 0 mm | - | 193 W/m² | - |
| 1777817345 | 16.67° C | 72% | 1008.3 hPa | 0 mm | - | 454 W/m² | - |
| 1777816805 | 16.67° C | 75% | 1008.4 hPa | 0 mm | - | 377 W/m² | - |
| 1777816445 | 16.11° C | 76% | 1008.6 hPa | 0 mm | - | 338 W/m² | - |
| 1777815905 | 16.11° C | 78% | 1008.6 hPa | 0 mm | - | 262 W/m² | - |
| 1777815365 | 15.56° C | 79% | 1008.5 hPa | 0 mm | - | 260 W/m² | - |
| 1777814825 | 15.56° C | 81% | 1008.6 hPa | 0 mm | - | 224 W/m² | - |
| 1777814285 | 15.56° C | 81% | 1008.6 hPa | 0 mm | - | 228 W/m² | - |
| 1777813745 | 15° C | 83% | 1008.6 hPa | 0 mm | - | 161 W/m² | - |
| 1777813205 | 15° C | 81% | 1008.5 hPa | 0 mm | - | 226 W/m² | - |
| 1777812845 | 15° C | 82% | 1008.5 hPa | 0 mm | - | 163 W/m² | - |
| 1777812305 | 15° C | 83% | 1008.6 hPa | 0 mm | - | 99 W/m² | - |
| 1777811765 | 15° C | 82% | 1008.3 hPa | 0 mm | - | 113 W/m² | - |
| 1777811225 | 15° C | 80% | 1008.5 hPa | 0 mm | - | 91 W/m² | - |
| 1777810685 | 15.56° C | 79% | 1008.4 hPa | 0 mm | - | 225 W/m² | - |
| 1777810145 | 15° C | 81% | 1008.3 hPa | 0 mm | - | 251 W/m² | - |
| 1777809605 | 15° C | 81% | 1008.5 hPa | 0 mm | - | 186 W/m² | - |
| 1777809245 | 15° C | 81% | 1008.5 hPa | 0 mm | - | 223 W/m² | - |
| 1777808705 | 14.44° C | 82% | 1008.4 hPa | 0 mm | - | 214 W/m² | - |
* Rain latest hour (hover to see other rain measurements)
** Current wind speed in m/s (hover to see current wind gust speed)